sensor_id;sensor_type;location;lat;lon;timestamp;P1;durP1;ratioP1;P2;durP2;ratioP2
39400;SDS011;75540;50.000;7.360;2024-02-04T00:00:25;0.90;;;0.70;;
39400;SDS011;75540;50.000;7.360;2024-02-04T00:02:53;0.80;;;0.57;;
39400;SDS011;75540;50.000;7.360;2024-02-04T00:05:21;1.17;;;0.90;;
39400;SDS011;75540;50.000;7.360;2024-02-04T00:07:51;0.90;;;0.70;;
39400;SDS011;75540;50.000;7.360;2024-02-04T00:10:19;1.55;;;0.70;;
39400;SDS011;75540;50.000;7.360;2024-02-04T00:12:48;0.75;;;0.60;;
39400;SDS011;75540;50.000;7.360;2024-02-04T00:15:16;1.30;;;0.68;;
39400;SDS011;75540;50.000;7.360;2024-02-04T00:17:46;0.80;;;0.70;;
39400;SDS011;75540;50.000;7.360;2024-02-04T00:20:14;0.80;;;0.73;;
39400;SDS011;75540;50.000;7.360;2024-02-04T00:22:42;3.50;;;2.13;;
39400;SDS011;75540;50.000;7.360;2024-02-04T00:25:12;6.45;;;3.10;;
39400;SDS011;75540;50.000;7.360;2024-02-04T00:27:41;3.72;;;2.10;;
39400;SDS011;75540;50.000;7.360;2024-02-04T00:30:10;1.40;;;1.10;;
39400;SDS011;75540;50.000;7.360;2024-02-04T00:32:39;5.18;;;2.17;;
39400;SDS011;75540;50.000;7.360;2024-02-04T00:35:07;5.57;;;3.25;;
39400;SDS011;75540;50.000;7.360;2024-02-04T00:37:36;6.25;;;3.30;;
39400;SDS011;75540;50.000;7.360;2024-02-04T00:40:04;5.70;;;2.92;;
39400;SDS011;75540;50.000;7.360;2024-02-04T00:42:35;4.47;;;2.85;;
39400;SDS011;75540;50.000;7.360;2024-02-04T00:45:04;3.83;;;2.00;;
39400;SDS011;75540;50.000;7.360;2024-02-04T00:47:32;3.30;;;2.30;;
39400;SDS011;75540;50.000;7.360;2024-02-04T00:50:01;3.78;;;2.55;;
39400;SDS011;75540;50.000;7.360;2024-02-04T00:52:29;2.97;;;2.58;;
39400;SDS011;75540;50.000;7.360;2024-02-04T00:54:57;1.88;;;1.45;;
39400;SDS011;75540;50.000;7.360;2024-02-04T00:57:26;4.15;;;2.88;;
39400;SDS011;75540;50.000;7.360;2024-02-04T00:59:56;1.98;;;1.58;;
39400;SDS011;75540;50.000;7.360;2024-02-04T01:02:24;1.85;;;1.60;;
39400;SDS011;75540;50.000;7.360;2024-02-04T01:04:52;1.83;;;1.00;;
39400;SDS011;75540;50.000;7.360;2024-02-04T01:07:21;1.52;;;1.33;;
39400;SDS011;75540;50.000;7.360;2024-02-04T01:09:50;2.33;;;1.30;;
39400;SDS011;75540;50.000;7.360;2024-02-04T01:12:18;2.65;;;1.77;;
39400;SDS011;75540;50.000;7.360;2024-02-04T01:14:46;1.95;;;1.40;;
39400;SDS011;75540;50.000;7.360;2024-02-04T01:17:16;2.47;;;1.85;;
39400;SDS011;75540;50.000;7.360;2024-02-04T01:19:44;2.65;;;1.65;;
39400;SDS011;75540;50.000;7.360;2024-02-04T01:22:13;1.75;;;1.10;;
39400;SDS011;75540;50.000;7.360;2024-02-04T01:24:41;1.95;;;1.23;;
39400;SDS011;75540;50.000;7.360;2024-02-04T01:27:09;1.60;;;1.10;;
39400;SDS011;75540;50.000;7.360;2024-02-04T01:29:38;1.50;;;0.90;;
39400;SDS011;75540;50.000;7.360;2024-02-04T01:32:06;1.15;;;0.90;;
39400;SDS011;75540;50.000;7.360;2024-02-04T01:34:36;1.13;;;0.77;;
39400;SDS011;75540;50.000;7.360;2024-02-04T01:37:05;1.05;;;0.80;;
39400;SDS011;75540;50.000;7.360;2024-02-04T01:39:33;1.50;;;1.23;;
39400;SDS011;75540;50.000;7.360;2024-02-04T01:42:01;1.20;;;0.90;;
39400;SDS011;75540;50.000;7.360;2024-02-04T01:44:32;1.02;;;0.90;;
39400;SDS011;75540;50.000;7.360;2024-02-04T01:47:00;1.15;;;0.70;;
39400;SDS011;75540;50.000;7.360;2024-02-04T01:49:28;0.93;;;0.55;;
39400;SDS011;75540;50.000;7.360;2024-02-04T01:51:59;0.98;;;0.70;;
39400;SDS011;75540;50.000;7.360;2024-02-04T01:54:28;1.63;;;0.80;;
39400;SDS011;75540;50.000;7.360;2024-02-04T01:56:58;0.90;;;0.60;;
39400;SDS011;75540;50.000;7.360;2024-02-04T01:59:28;1.10;;;0.65;;
39400;SDS011;75540;50.000;7.360;2024-02-04T02:01:58;1.27;;;0.75;;
39400;SDS011;75540;50.000;7.360;2024-02-04T02:04:27;0.98;;;0.50;;
39400;SDS011;75540;50.000;7.360;2024-02-04T02:06:56;0.90;;;0.70;;
39400;SDS011;75540;50.000;7.360;2024-02-04T02:09:28;0.50;;;0.38;;
39400;SDS011;75540;50.000;7.360;2024-02-04T02:11:57;1.00;;;0.57;;
39400;SDS011;75540;50.000;7.360;2024-02-04T02:14:35;0.65;;;0.47;;
39400;SDS011;75540;50.000;7.360;2024-02-04T02:17:09;0.90;;;0.60;;
39400;SDS011;75540;50.000;7.360;2024-02-04T02:19:46;0.95;;;0.70;;
39400;SDS011;75540;50.000;7.360;2024-02-04T02:22:24;0.63;;;0.40;;
39400;SDS011;75540;50.000;7.360;2024-02-04T02:27:26;1.05;;;0.77;;
39400;SDS011;75540;50.000;7.360;2024-02-04T02:29:54;0.75;;;0.38;;
39400;SDS011;75540;50.000;7.360;2024-02-04T02:32:23;0.60;;;0.40;;
39400;SDS011;75540;50.000;7.360;2024-02-04T02:34:52;3.95;;;0.70;;
39400;SDS011;75540;50.000;7.360;2024-02-04T02:37:23;0.80;;;0.63;;
39400;SDS011;75540;50.000;7.360;2024-02-04T02:39:58;0.95;;;0.50;;
39400;SDS011;75540;50.000;7.360;2024-02-04T02:42:31;0.70;;;0.50;;
39400;SDS011;75540;50.000;7.360;2024-02-04T02:45:01;0.60;;;0.50;;
39400;SDS011;75540;50.000;7.360;2024-02-04T02:47:29;0.70;;;0.47;;
39400;SDS011;75540;50.000;7.360;2024-02-04T02:50:00;0.45;;;0.40;;
39400;SDS011;75540;50.000;7.360;2024-02-04T02:52:28;0.77;;;0.47;;
39400;SDS011;75540;50.000;7.360;2024-02-04T02:54:58;0.70;;;0.40;;
39400;SDS011;75540;50.000;7.360;2024-02-04T02:57:26;0.70;;;0.40;;
39400;SDS011;75540;50.000;7.360;2024-02-04T02:59:55;0.55;;;0.50;;
39400;SDS011;75540;50.000;7.360;2024-02-04T03:02:23;0.90;;;0.60;;
39400;SDS011;75540;50.000;7.360;2024-02-04T03:04:51;1.17;;;0.68;;
39400;SDS011;75540;50.000;7.360;2024-02-04T03:07:20;1.13;;;0.60;;
39400;SDS011;75540;50.000;7.360;2024-02-04T03:09:48;0.70;;;0.47;;
39400;SDS011;75540;50.000;7.360;2024-02-04T03:12:18;0.95;;;0.60;;
39400;SDS011;75540;50.000;7.360;2024-02-04T03:14:46;0.82;;;0.40;;
39400;SDS011;75540;50.000;7.360;2024-02-04T03:17:14;0.60;;;0.40;;
39400;SDS011;75540;50.000;7.360;2024-02-04T03:19:48;0.77;;;0.52;;
39400;SDS011;75540;50.000;7.360;2024-02-04T03:22:18;0.60;;;0.45;;
39400;SDS011;75540;50.000;7.360;2024-02-04T03:24:48;0.50;;;0.40;;
39400;SDS011;75540;50.000;7.360;2024-02-04T03:27:18;0.80;;;0.50;;
39400;SDS011;75540;50.000;7.360;2024-02-04T03:29:47;0.70;;;0.40;;
39400;SDS011;75540;50.000;7.360;2024-02-04T03:32:16;0.40;;;0.30;;
39400;SDS011;75540;50.000;7.360;2024-02-04T03:34:44;0.90;;;0.70;;
39400;SDS011;75540;50.000;7.360;2024-02-04T03:37:13;0.60;;;0.40;;
39400;SDS011;75540;50.000;7.360;2024-02-04T03:39:41;0.60;;;0.40;;
39400;SDS011;75540;50.000;7.360;2024-02-04T03:42:09;0.90;;;0.50;;
39400;SDS011;75540;50.000;7.360;2024-02-04T03:44:39;0.80;;;0.50;;
39400;SDS011;75540;50.000;7.360;2024-02-04T03:47:08;0.30;;;0.30;;
39400;SDS011;75540;50.000;7.360;2024-02-04T03:49:36;0.50;;;0.40;;
39400;SDS011;75540;50.000;7.360;2024-02-04T03:52:04;0.98;;;0.50;;
39400;SDS011;75540;50.000;7.360;2024-02-04T03:54:33;0.60;;;0.52;;
39400;SDS011;75540;50.000;7.360;2024-02-04T03:57:01;0.80;;;0.60;;
39400;SDS011;75540;50.000;7.360;2024-02-04T03:59:30;0.85;;;0.50;;
39400;SDS011;75540;50.000;7.360;2024-02-04T04:01:59;0.50;;;0.40;;
39400;SDS011;75540;50.000;7.360;2024-02-04T04:04:28;0.60;;;0.45;;
39400;SDS011;75540;50.000;7.360;2024-02-04T04:06:56;0.80;;;0.57;;
39400;SDS011;75540;50.000;7.360;2024-02-04T04:09:25;0.50;;;0.40;;
39400;SDS011;75540;50.000;7.360;2024-02-04T04:11:54;0.47;;;0.40;;
39400;SDS011;75540;50.000;7.360;2024-02-04T04:14:22;1.17;;;1.08;;
39400;SDS011;75540;50.000;7.360;2024-02-04T04:16:50;0.80;;;0.80;;
39400;SDS011;75540;50.000;7.360;2024-02-04T04:19:20;2.17;;;0.50;;
39400;SDS011;75540;50.000;7.360;2024-02-04T04:21:48;0.60;;;0.40;;
39400;SDS011;75540;50.000;7.360;2024-02-04T04:24:16;1.10;;;0.40;;
39400;SDS011;75540;50.000;7.360;2024-02-04T04:26:46;1.17;;;0.73;;
39400;SDS011;75540;50.000;7.360;2024-02-04T04:29:14;0.50;;;0.40;;
39400;SDS011;75540;50.000;7.360;2024-02-04T04:31:43;0.57;;;0.45;;
39400;SDS011;75540;50.000;7.360;2024-02-04T04:34:11;0.57;;;0.30;;
39400;SDS011;75540;50.000;7.360;2024-02-04T04:36:41;0.40;;;0.30;;
39400;SDS011;75540;50.000;7.360;2024-02-04T04:39:10;0.60;;;0.57;;
39400;SDS011;75540;50.000;7.360;2024-02-04T04:41:39;0.70;;;0.45;;
39400;SDS011;75540;50.000;7.360;2024-02-04T04:44:08;0.43;;;0.30;;
39400;SDS011;75540;50.000;7.360;2024-02-04T04:46:37;0.93;;;0.28;;
39400;SDS011;75540;50.000;7.360;2024-02-04T04:49:05;0.82;;;0.57;;
39400;SDS011;75540;50.000;7.360;2024-02-04T04:51:35;0.55;;;0.40;;
39400;SDS011;75540;50.000;7.360;2024-02-04T04:54:05;0.60;;;0.30;;
39400;SDS011;75540;50.000;7.360;2024-02-04T04:56:37;0.50;;;0.40;;
39400;SDS011;75540;50.000;7.360;2024-02-04T04:59:08;0.40;;;0.32;;
39400;SDS011;75540;50.000;7.360;2024-02-04T05:01:37;0.43;;;0.25;;
39400;SDS011;75540;50.000;7.360;2024-02-04T05:04:12;0.40;;;0.30;;
39400;SDS011;75540;50.000;7.360;2024-02-04T05:06:41;0.50;;;0.30;;
39400;SDS011;75540;50.000;7.360;2024-02-04T05:09:10;0.40;;;0.30;;
39400;SDS011;75540;50.000;7.360;2024-02-04T05:11:39;0.55;;;0.40;;
39400;SDS011;75540;50.000;7.360;2024-02-04T05:14:07;0.70;;;0.38;;
39400;SDS011;75540;50.000;7.360;2024-02-04T05:16:35;0.40;;;0.25;;
39400;SDS011;75540;50.000;7.360;2024-02-04T05:19:04;0.40;;;0.28;;
39400;SDS011;75540;50.000;7.360;2024-02-04T05:21:32;0.40;;;0.30;;
39400;SDS011;75540;50.000;7.360;2024-02-04T05:24:00;0.70;;;0.28;;
39400;SDS011;75540;50.000;7.360;2024-02-04T05:26:30;0.50;;;0.30;;
39400;SDS011;75540;50.000;7.360;2024-02-04T05:28:58;0.43;;;0.30;;
39400;SDS011;75540;50.000;7.360;2024-02-04T05:31:26;0.35;;;0.30;;
39400;SDS011;75540;50.000;7.360;2024-02-04T05:33:55;0.43;;;0.30;;
39400;SDS011;75540;50.000;7.360;2024-02-04T05:36:24;0.30;;;0.30;;
39400;SDS011;75540;50.000;7.360;2024-02-04T05:38:52;0.55;;;0.40;;
39400;SDS011;75540;50.000;7.360;2024-02-04T05:41:20;0.40;;;0.28;;
39400;SDS011;75540;50.000;7.360;2024-02-04T05:43:50;0.95;;;0.30;;
39400;SDS011;75540;50.000;7.360;2024-02-04T05:46:19;0.40;;;0.32;;
39400;SDS011;75540;50.000;7.360;2024-02-04T05:48:48;0.20;;;0.10;;
39400;SDS011;75540;50.000;7.360;2024-02-04T05:51:16;0.52;;;0.30;;
39400;SDS011;75540;50.000;7.360;2024-02-04T05:53:44;0.40;;;0.30;;
39400;SDS011;75540;50.000;7.360;2024-02-04T05:56:13;0.30;;;0.20;;
39400;SDS011;75540;50.000;7.360;2024-02-04T05:58:41;0.30;;;0.20;;
39400;SDS011;75540;50.000;7.360;2024-02-04T06:01:11;0.45;;;0.30;;
39400;SDS011;75540;50.000;7.360;2024-02-04T06:03:41;0.35;;;0.22;;
39400;SDS011;75540;50.000;7.360;2024-02-04T06:06:13;1.85;;;0.38;;
39400;SDS011;75540;50.000;7.360;2024-02-04T06:08:42;0.38;;;0.30;;
39400;SDS011;75540;50.000;7.360;2024-02-04T06:11:11;0.22;;;0.20;;
39400;SDS011;75540;50.000;7.360;2024-02-04T06:13:40;0.30;;;0.20;;
39400;SDS011;75540;50.000;7.360;2024-02-04T06:16:11;0.30;;;0.20;;
39400;SDS011;75540;50.000;7.360;2024-02-04T06:18:40;0.30;;;0.20;;
39400;SDS011;75540;50.000;7.360;2024-02-04T06:21:08;0.52;;;0.30;;
39400;SDS011;75540;50.000;7.360;2024-02-04T06:23:37;0.28;;;0.20;;
39400;SDS011;75540;50.000;7.360;2024-02-04T06:26:06;0.52;;;0.38;;
39400;SDS011;75540;50.000;7.360;2024-02-04T06:28:34;0.30;;;0.30;;
39400;SDS011;75540;50.000;7.360;2024-02-04T06:31:03;1.55;;;0.40;;
39400;SDS011;75540;50.000;7.360;2024-02-04T06:33:33;0.30;;;0.20;;
39400;SDS011;75540;50.000;7.360;2024-02-04T06:36:02;1.10;;;0.40;;
39400;SDS011;75540;50.000;7.360;2024-02-04T06:38:30;0.50;;;0.40;;
39400;SDS011;75540;50.000;7.360;2024-02-04T06:40:59;0.43;;;0.30;;
39400;SDS011;75540;50.000;7.360;2024-02-04T06:43:27;0.50;;;0.30;;
39400;SDS011;75540;50.000;7.360;2024-02-04T06:45:54;0.32;;;0.20;;
39400;SDS011;75540;50.000;7.360;2024-02-04T06:48:23;0.40;;;0.30;;
39400;SDS011;75540;50.000;7.360;2024-02-04T06:50:52;0.82;;;0.30;;
39400;SDS011;75540;50.000;7.360;2024-02-04T06:53:21;0.30;;;0.30;;
39400;SDS011;75540;50.000;7.360;2024-02-04T06:55:49;0.43;;;0.20;;
39400;SDS011;75540;50.000;7.360;2024-02-04T06:58:17;0.40;;;0.40;;
39400;SDS011;75540;50.000;7.360;2024-02-04T07:00:45;0.35;;;0.20;;
39400;SDS011;75540;50.000;7.360;2024-02-04T07:03:15;0.50;;;0.28;;
39400;SDS011;75540;50.000;7.360;2024-02-04T07:05:44;0.40;;;0.20;;
39400;SDS011;75540;50.000;7.360;2024-02-04T07:08:15;0.30;;;0.20;;
39400;SDS011;75540;50.000;7.360;2024-02-04T07:10:44;0.30;;;0.30;;
39400;SDS011;75540;50.000;7.360;2024-02-04T07:13:12;0.63;;;0.30;;
39400;SDS011;75540;50.000;7.360;2024-02-04T07:15:41;0.30;;;0.30;;
39400;SDS011;75540;50.000;7.360;2024-02-04T07:18:09;0.32;;;0.28;;
39400;SDS011;75540;50.000;7.360;2024-02-04T07:20:38;0.20;;;0.20;;
39400;SDS011;75540;50.000;7.360;2024-02-04T07:23:06;0.75;;;0.40;;
39400;SDS011;75540;50.000;7.360;2024-02-04T07:25:36;0.80;;;0.40;;
39400;SDS011;75540;50.000;7.360;2024-02-04T07:28:04;0.32;;;0.30;;
39400;SDS011;75540;50.000;7.360;2024-02-04T07:30:33;0.43;;;0.22;;
39400;SDS011;75540;50.000;7.360;2024-02-04T07:33:01;0.30;;;0.28;;
39400;SDS011;75540;50.000;7.360;2024-02-04T07:35:30;0.32;;;0.30;;
39400;SDS011;75540;50.000;7.360;2024-02-04T07:37:59;0.40;;;0.30;;
39400;SDS011;75540;50.000;7.360;2024-02-04T07:40:27;0.50;;;0.28;;
39400;SDS011;75540;50.000;7.360;2024-02-04T07:42:58;0.52;;;0.30;;
39400;SDS011;75540;50.000;7.360;2024-02-04T07:45:26;0.75;;;0.40;;
39400;SDS011;75540;50.000;7.360;2024-02-04T07:47:55;0.38;;;0.30;;
39400;SDS011;75540;50.000;7.360;2024-02-04T07:50:23;1.70;;;0.40;;
39400;SDS011;75540;50.000;7.360;2024-02-04T07:52:51;0.20;;;0.10;;
39400;SDS011;75540;50.000;7.360;2024-02-04T07:55:20;0.40;;;0.40;;
39400;SDS011;75540;50.000;7.360;2024-02-04T07:57:48;0.40;;;0.40;;
39400;SDS011;75540;50.000;7.360;2024-02-04T08:00:18;1.10;;;0.45;;
39400;SDS011;75540;50.000;7.360;2024-02-04T08:02:47;0.30;;;0.30;;
39400;SDS011;75540;50.000;7.360;2024-02-04T08:05:16;0.40;;;0.20;;
39400;SDS011;75540;50.000;7.360;2024-02-04T08:07:44;0.57;;;0.30;;
39400;SDS011;75540;50.000;7.360;2024-02-04T08:10:13;0.20;;;0.20;;
39400;SDS011;75540;50.000;7.360;2024-02-04T08:12:42;0.43;;;0.30;;
39400;SDS011;75540;50.000;7.360;2024-02-04T08:15:11;0.40;;;0.30;;
39400;SDS011;75540;50.000;7.360;2024-02-04T08:17:41;0.50;;;0.40;;
39400;SDS011;75540;50.000;7.360;2024-02-04T08:20:09;0.22;;;0.20;;
39400;SDS011;75540;50.000;7.360;2024-02-04T08:22:38;0.75;;;0.60;;
39400;SDS011;75540;50.000;7.360;2024-02-04T08:25:06;0.25;;;0.25;;
39400;SDS011;75540;50.000;7.360;2024-02-04T08:27:38;0.38;;;0.30;;
39400;SDS011;75540;50.000;7.360;2024-02-04T08:30:07;0.40;;;0.20;;
39400;SDS011;75540;50.000;7.360;2024-02-04T08:32:38;0.30;;;0.30;;
39400;SDS011;75540;50.000;7.360;2024-02-04T08:35:08;0.20;;;0.20;;
39400;SDS011;75540;50.000;7.360;2024-02-04T08:37:37;0.40;;;0.30;;
39400;SDS011;75540;50.000;7.360;2024-02-04T08:40:05;0.30;;;0.30;;
39400;SDS011;75540;50.000;7.360;2024-02-04T08:42:34;0.35;;;0.25;;
39400;SDS011;75540;50.000;7.360;2024-02-04T08:45:05;0.17;;;0.17;;
39400;SDS011;75540;50.000;7.360;2024-02-04T08:47:33;0.65;;;0.30;;
39400;SDS011;75540;50.000;7.360;2024-02-04T08:50:02;0.22;;;0.22;;
39400;SDS011;75540;50.000;7.360;2024-02-04T08:52:32;0.30;;;0.20;;
39400;SDS011;75540;50.000;7.360;2024-02-04T08:55:00;1.27;;;0.30;;
39400;SDS011;75540;50.000;7.360;2024-02-04T08:57:30;0.40;;;0.30;;
39400;SDS011;75540;50.000;7.360;2024-02-04T08:59:59;1.20;;;0.32;;
39400;SDS011;75540;50.000;7.360;2024-02-04T09:02:27;0.50;;;0.40;;
39400;SDS011;75540;50.000;7.360;2024-02-04T09:04:56;1.45;;;0.75;;
39400;SDS011;75540;50.000;7.360;2024-02-04T09:07:24;0.68;;;0.40;;
39400;SDS011;75540;50.000;7.360;2024-02-04T09:09:56;0.50;;;0.40;;
39400;SDS011;75540;50.000;7.360;2024-02-04T09:12:24;0.50;;;0.40;;
39400;SDS011;75540;50.000;7.360;2024-02-04T09:14:52;0.47;;;0.30;;
39400;SDS011;75540;50.000;7.360;2024-02-04T09:17:21;0.65;;;0.50;;
39400;SDS011;75540;50.000;7.360;2024-02-04T09:19:49;0.38;;;0.30;;
39400;SDS011;75540;50.000;7.360;2024-02-04T09:22:19;1.35;;;0.40;;
39400;SDS011;75540;50.000;7.360;2024-02-04T09:24:47;0.60;;;0.60;;
39400;SDS011;75540;50.000;7.360;2024-02-04T09:27:17;0.95;;;0.65;;
39400;SDS011;75540;50.000;7.360;2024-02-04T09:29:46;0.68;;;0.40;;
39400;SDS011;75540;50.000;7.360;2024-02-04T09:32:14;0.52;;;0.43;;
39400;SDS011;75540;50.000;7.360;2024-02-04T09:34:45;0.43;;;0.30;;
39400;SDS011;75540;50.000;7.360;2024-02-04T09:37:13;0.80;;;0.45;;
39400;SDS011;75540;50.000;7.360;2024-02-04T09:39:43;0.43;;;0.40;;
39400;SDS011;75540;50.000;7.360;2024-02-04T09:42:14;0.63;;;0.55;;
39400;SDS011;75540;50.000;7.360;2024-02-04T09:44:49;0.40;;;0.40;;
39400;SDS011;75540;50.000;7.360;2024-02-04T09:47:18;0.52;;;0.40;;
39400;SDS011;75540;50.000;7.360;2024-02-04T09:49:46;0.70;;;0.50;;
39400;SDS011;75540;50.000;7.360;2024-02-04T09:52:16;0.50;;;0.45;;
39400;SDS011;75540;50.000;7.360;2024-02-04T09:54:48;0.50;;;0.50;;
39400;SDS011;75540;50.000;7.360;2024-02-04T09:57:19;0.60;;;0.47;;
39400;SDS011;75540;50.000;7.360;2024-02-04T09:59:48;0.38;;;0.35;;
39400;SDS011;75540;50.000;7.360;2024-02-04T10:02:16;0.22;;;0.20;;
39400;SDS011;75540;50.000;7.360;2024-02-04T10:04:47;0.30;;;0.20;;
39400;SDS011;75540;50.000;7.360;2024-02-04T10:07:16;0.30;;;0.30;;
39400;SDS011;75540;50.000;7.360;2024-02-04T10:09:46;0.35;;;0.35;;
39400;SDS011;75540;50.000;7.360;2024-02-04T10:12:15;1.58;;;0.40;;
39400;SDS011;75540;50.000;7.360;2024-02-04T10:14:46;0.25;;;0.20;;
39400;SDS011;75540;50.000;7.360;2024-02-04T10:17:15;0.28;;;0.20;;
39400;SDS011;75540;50.000;7.360;2024-02-04T10:19:43;0.50;;;0.30;;
39400;SDS011;75540;50.000;7.360;2024-02-04T10:22:11;0.20;;;0.10;;
39400;SDS011;75540;50.000;7.360;2024-02-04T10:24:40;0.38;;;0.20;;
39400;SDS011;75540;50.000;7.360;2024-02-04T10:27:10;0.13;;;0.10;;
39400;SDS011;75540;50.000;7.360;2024-02-04T10:29:49;0.25;;;0.20;;
39400;SDS011;75540;50.000;7.360;2024-02-04T10:32:21;0.30;;;0.20;;
39400;SDS011;75540;50.000;7.360;2024-02-04T10:34:51;0.20;;;0.10;;
39400;SDS011;75540;50.000;7.360;2024-02-04T10:37:20;0.20;;;0.20;;
39400;SDS011;75540;50.000;7.360;2024-02-04T10:39:48;0.20;;;0.10;;
39400;SDS011;75540;50.000;7.360;2024-02-04T10:42:16;0.40;;;0.30;;
39400;SDS011;75540;50.000;7.360;2024-02-04T10:44:52;1.35;;;0.28;;
39400;SDS011;75540;50.000;7.360;2024-02-04T10:47:22;0.20;;;0.15;;
39400;SDS011;75540;50.000;7.360;2024-02-04T10:49:52;0.40;;;0.30;;
39400;SDS011;75540;50.000;7.360;2024-02-04T10:52:22;0.20;;;0.20;;
39400;SDS011;75540;50.000;7.360;2024-02-04T10:54:51;0.30;;;0.10;;
39400;SDS011;75540;50.000;7.360;2024-02-04T10:57:20;0.30;;;0.20;;
39400;SDS011;75540;50.000;7.360;2024-02-04T10:59:50;0.17;;;0.17;;
39400;SDS011;75540;50.000;7.360;2024-02-04T11:02:21;0.30;;;0.10;;
39400;SDS011;75540;50.000;7.360;2024-02-04T11:04:50;0.20;;;0.20;;
39400;SDS011;75540;50.000;7.360;2024-02-04T11:07:19;0.30;;;0.22;;
39400;SDS011;75540;50.000;7.360;2024-02-04T11:09:50;0.43;;;0.20;;
39400;SDS011;75540;50.000;7.360;2024-02-04T11:12:19;0.25;;;0.25;;
39400;SDS011;75540;50.000;7.360;2024-02-04T11:14:50;0.30;;;0.13;;
39400;SDS011;75540;50.000;7.360;2024-02-04T11:20:40;0.30;;;0.17;;
39400;SDS011;75540;50.000;7.360;2024-02-04T11:23:27;0.70;;;0.28;;
39400;SDS011;75540;50.000;7.360;2024-02-04T11:26:06;0.43;;;0.40;;
39400;SDS011;75540;50.000;7.360;2024-02-04T11:28:35;0.30;;;0.30;;
39400;SDS011;75540;50.000;7.360;2024-02-04T11:31:09;0.40;;;0.30;;
39400;SDS011;75540;50.000;7.360;2024-02-04T11:33:42;0.75;;;0.20;;
39400;SDS011;75540;50.000;7.360;2024-02-04T11:36:12;0.22;;;0.20;;
39400;SDS011;75540;50.000;7.360;2024-02-04T11:38:42;0.20;;;0.20;;
39400;SDS011;75540;50.000;7.360;2024-02-04T11:41:21;0.25;;;0.20;;
39400;SDS011;75540;50.000;7.360;2024-02-04T11:43:51;0.17;;;0.10;;
39400;SDS011;75540;50.000;7.360;2024-02-04T11:46:28;2.00;;;0.30;;
39400;SDS011;75540;50.000;7.360;2024-02-04T11:49:00;0.43;;;0.20;;
39400;SDS011;75540;50.000;7.360;2024-02-04T11:51:29;2.08;;;0.32;;
39400;SDS011;75540;50.000;7.360;2024-02-04T11:53:58;0.20;;;0.10;;
39400;SDS011;75540;50.000;7.360;2024-02-04T11:56:28;0.20;;;0.10;;
39400;SDS011;75540;50.000;7.360;2024-02-04T11:58:56;0.28;;;0.10;;
39400;SDS011;75540;50.000;7.360;2024-02-04T12:01:26;0.43;;;0.17;;
39400;SDS011;75540;50.000;7.360;2024-02-04T12:03:56;0.10;;;0.10;;
39400;SDS011;75540;50.000;7.360;2024-02-04T12:06:24;0.20;;;0.20;;
39400;SDS011;75540;50.000;7.360;2024-02-04T12:08:53;0.10;;;0.10;;
39400;SDS011;75540;50.000;7.360;2024-02-04T12:11:22;0.75;;;0.30;;
39400;SDS011;75540;50.000;7.360;2024-02-04T12:13:52;0.10;;;0.10;;
39400;SDS011;75540;50.000;7.360;2024-02-04T12:16:21;0.28;;;0.20;;
39400;SDS011;75540;50.000;7.360;2024-02-04T12:18:50;0.28;;;0.20;;
39400;SDS011;75540;50.000;7.360;2024-02-04T12:21:20;0.25;;;0.10;;
39400;SDS011;75540;50.000;7.360;2024-02-04T12:23:48;0.20;;;0.13;;
39400;SDS011;75540;50.000;7.360;2024-02-04T12:26:17;0.10;;;0.10;;
39400;SDS011;75540;50.000;7.360;2024-02-04T12:28:45;0.73;;;0.35;;
39400;SDS011;75540;50.000;7.360;2024-02-04T12:31:16;0.47;;;0.17;;
39400;SDS011;75540;50.000;7.360;2024-02-04T12:33:52;0.32;;;0.20;;
39400;SDS011;75540;50.000;7.360;2024-02-04T12:36:26;0.10;;;0.10;;
39400;SDS011;75540;50.000;7.360;2024-02-04T12:38:56;0.20;;;0.10;;
39400;SDS011;75540;50.000;7.360;2024-02-04T12:41:25;0.00;;;0.00;;
39400;SDS011;75540;50.000;7.360;2024-02-04T12:43:54;0.10;;;0.10;;
39400;SDS011;75540;50.000;7.360;2024-02-04T12:46:24;0.10;;;0.10;;
39400;SDS011;75540;50.000;7.360;2024-02-04T12:48:56;0.10;;;0.10;;
39400;SDS011;75540;50.000;7.360;2024-02-04T12:51:32;0.55;;;0.20;;
39400;SDS011;75540;50.000;7.360;2024-02-04T12:54:04;0.10;;;0.10;;
39400;SDS011;75540;50.000;7.360;2024-02-04T12:56:39;0.43;;;0.43;;
39400;SDS011;75540;50.000;7.360;2024-02-04T13:01:37;0.22;;;0.10;;
39400;SDS011;75540;50.000;7.360;2024-02-04T13:04:06;0.13;;;0.10;;
39400;SDS011;75540;50.000;7.360;2024-02-04T13:06:39;0.10;;;0.10;;
39400;SDS011;75540;50.000;7.360;2024-02-04T13:09:08;0.57;;;0.43;;
39400;SDS011;75540;50.000;7.360;2024-02-04T13:11:36;0.40;;;0.30;;
39400;SDS011;75540;50.000;7.360;2024-02-04T13:14:04;0.20;;;0.15;;
39400;SDS011;75540;50.000;7.360;2024-02-04T13:16:33;0.20;;;0.10;;
39400;SDS011;75540;50.000;7.360;2024-02-04T13:19:02;0.20;;;0.20;;
39400;SDS011;75540;50.000;7.360;2024-02-04T13:21:32;0.20;;;0.10;;
39400;SDS011;75540;50.000;7.360;2024-02-04T13:24:02;0.15;;;0.13;;
39400;SDS011;75540;50.000;7.360;2024-02-04T13:26:30;0.10;;;0.10;;
39400;SDS011;75540;50.000;7.360;2024-02-04T13:28:58;0.20;;;0.10;;
39400;SDS011;75540;50.000;7.360;2024-02-04T13:31:27;0.10;;;0.10;;
39400;SDS011;75540;50.000;7.360;2024-02-04T13:33:55;1.30;;;0.20;;
39400;SDS011;75540;50.000;7.360;2024-02-04T13:36:24;0.10;;;0.10;;
39400;SDS011;75540;50.000;7.360;2024-02-04T13:38:52;0.40;;;0.15;;
39400;SDS011;75540;50.000;7.360;2024-02-04T13:41:22;0.65;;;0.20;;
39400;SDS011;75540;50.000;7.360;2024-02-04T13:43:50;0.73;;;0.20;;
39400;SDS011;75540;50.000;7.360;2024-02-04T13:46:19;0.13;;;0.10;;
39400;SDS011;75540;50.000;7.360;2024-02-04T13:48:49;0.20;;;0.20;;
39400;SDS011;75540;50.000;7.360;2024-02-04T13:51:17;0.20;;;0.20;;
39400;SDS011;75540;50.000;7.360;2024-02-04T13:54:06;0.20;;;0.10;;
39400;SDS011;75540;50.000;7.360;2024-02-04T13:56:39;0.10;;;0.10;;
39400;SDS011;75540;50.000;7.360;2024-02-04T13:59:08;0.10;;;0.10;;
39400;SDS011;75540;50.000;7.360;2024-02-04T14:01:36;0.22;;;0.20;;
39400;SDS011;75540;50.000;7.360;2024-02-04T14:04:05;0.20;;;0.10;;
39400;SDS011;75540;50.000;7.360;2024-02-04T14:06:34;0.13;;;0.10;;
39400;SDS011;75540;50.000;7.360;2024-02-04T14:09:03;0.15;;;0.10;;
39400;SDS011;75540;50.000;7.360;2024-02-04T14:11:32;0.17;;;0.10;;
39400;SDS011;75540;50.000;7.360;2024-02-04T14:14:01;0.75;;;0.20;;
39400;SDS011;75540;50.000;7.360;2024-02-04T14:16:30;0.10;;;0.10;;
39400;SDS011;75540;50.000;7.360;2024-02-04T14:18:58;0.17;;;0.10;;
39400;SDS011;75540;50.000;7.360;2024-02-04T14:21:27;0.32;;;0.10;;
39400;SDS011;75540;50.000;7.360;2024-02-04T14:23:55;0.20;;;0.10;;
39400;SDS011;75540;50.000;7.360;2024-02-04T14:26:24;0.15;;;0.10;;
39400;SDS011;75540;50.000;7.360;2024-02-04T14:28:52;0.10;;;0.10;;
39400;SDS011;75540;50.000;7.360;2024-02-04T14:31:22;1.08;;;0.45;;
39400;SDS011;75540;50.000;7.360;2024-02-04T14:33:50;0.10;;;0.10;;
39400;SDS011;75540;50.000;7.360;2024-02-04T14:36:19;0.10;;;0.10;;
39400;SDS011;75540;50.000;7.360;2024-02-04T14:38:47;0.10;;;0.08;;
39400;SDS011;75540;50.000;7.360;2024-02-04T14:41:16;0.08;;;0.08;;
39400;SDS011;75540;50.000;7.360;2024-02-04T14:43:44;0.10;;;0.10;;
39400;SDS011;75540;50.000;7.360;2024-02-04T14:46:12;0.20;;;0.17;;
39400;SDS011;75540;50.000;7.360;2024-02-04T14:48:42;0.10;;;0.10;;
39400;SDS011;75540;50.000;7.360;2024-02-04T14:51:11;0.10;;;0.10;;
39400;SDS011;75540;50.000;7.360;2024-02-04T14:53:39;0.20;;;0.20;;
39400;SDS011;75540;50.000;7.360;2024-02-04T14:56:07;0.25;;;0.20;;
39400;SDS011;75540;50.000;7.360;2024-02-04T14:58:36;0.10;;;0.10;;
39400;SDS011;75540;50.000;7.360;2024-02-04T15:01:04;0.10;;;0.10;;
39400;SDS011;75540;50.000;7.360;2024-02-04T15:03:33;0.10;;;0.10;;
39400;SDS011;75540;50.000;7.360;2024-02-04T15:06:03;0.10;;;0.10;;
39400;SDS011;75540;50.000;7.360;2024-02-04T15:08:32;0.10;;;0.10;;